Freedom Line — 9HA2976 — position and weather

sailwx.info

Track history (hours):
 
Tides and Currents Weather Stations Pressure Air Temp Water Temp Dewpoint Dewpoint Depression Visibility Wind Speed Wind Dir Waves Ship Positions

Freedom Line

Last reported at 2018-May-24 23:41 UTC. Time now 2018-Jun-23 07:52 UTC.
Position S 28°51' E 032°09'.
Warning: this ship's position is 29 days out of date.

Length 190 m; draft 6.4 m.

Type: Cargo ship. MMSI: 256991000.

Date/timePositionNaut miles runAvg speedWind from/ knotsBaromVisibWave heightAir tempDewpointWater temp
2018-May-24 23:41S 28°51' E 032°09'0 0.9
2018-May-24 23:18S 28°51' E 032°09'0 0.5
2018-May-24 22:50S 28°51' E 032°09'7 0.2
2018-May-23 14:22S 28°48' E 032°03'0 0.0
2018-May-23 13:58S 28°48' E 032°03'0 0.0
2018-May-23 13:28S 28°48' E 032°03'0 0.0
2018-May-23 12:58S 28°48' E 032°03'0 0.0
2018-May-23 12:28S 28°48' E 032°03'0 0.0
2018-May-22 14:10S 28°48' E 032°03'0 0.0
2018-May-22 13:40S 28°48' E 032°03'0 0.0
2018-May-22 13:10S 28°48' E 032°03'0 0.0
2018-May-22 12:52S 28°48' E 032°03'0 0.0
2018-May-22 12:16S 28°48' E 032°03'0 0.0
2018-May-22 11:46S 28°48' E 032°03'0 0.0
2018-May-22 10:52S 28°48' E 032°03'0 0.0
2018-May-22 10:28S 28°48' E 032°03'0 0.0
2018-May-22 09:58S 28°48' E 032°03'0 0.0
2018-May-22 09:28S 28°48' E 032°03'0 0.0
2018-May-22 06:46S 28°48' E 032°03'0 0.0
2018-May-22 06:28S 28°48' E 032°03'0 0.0
2018-May-22 05:58S 28°48' E 032°03'0 0.0
2018-May-22 05:28S 28°48' E 032°03'0 0.0
2018-May-22 05:01S 28°48' E 032°03'0 0.0
2018-May-22 04:28S 28°48' E 032°03'0 0.0
2018-May-22 03:57S 28°48' E 032°03'0 0.0
2018-May-22 03:27S 28°48' E 032°03'0 0.0
2018-May-22 02:45S 28°48' E 032°03'0 0.0
2018-May-21 21:03S 28°48' E 032°03'0 0.0
2018-May-21 20:51S 28°48' E 032°03'0 0.0
2018-May-21 20:21S 28°48' E 032°03'0 0.0
2018-May-21 19:57S 28°48' E 032°03'0 0.0
2018-May-21 19:30S 28°48' E 032°03'0 0.0
2018-May-21 16:33S 28°48' E 032°03'0 0.1
2018-May-21 16:27S 28°48' E 032°03'0 0.0
2018-May-21 16:00S 28°48' E 032°03'0 0.0
2018-May-21 15:27S 28°48' E 032°03'0 0.0
2018-May-21 14:51S 28°48' E 032°03'0 0.0
2018-May-21 14:27S 28°48' E 032°03'8 0.9
2018-May-21 05:18S 28°53' E 032°09'1 2.0
2018-May-21 05:00S 28°54' E 032°09'2 4.0
2018-May-21 04:31S 28°56' E 032°09'3 5.5
2018-May-21 04:00S 28°58' E 032°08'0 0.1
2018-May-21 03:27S 28°58' E 032°08'0 0.0
2018-May-21 02:51S 28°58' E 032°08'0 0.0
2018-May-21 02:27S 28°58' E 032°08'0 0.0
2018-May-21 01:57S 28°58' E 032°08'0 0.1
2018-May-21 01:27S 28°58' E 032°08'0 0.1
2018-May-21 00:57S 28°58' E 032°08'0 0.0
2018-May-20 23:09S 28°58' E 032°08'0 0.0
2018-May-20 22:56S 28°58' E 032°08'  
Track history (hours):
 
Tides and Currents Weather Stations Pressure Air Temp Water Temp Dewpoint Dewpoint Depression Visibility Wind Speed Wind Dir Waves Ship Positions

Freedom Line

Last reported at 2018-May-24 23:41 UTC. Time now 2018-Jun-23 07:52 UTC.
Position S 28°51' E 032°09'.
Warning: this ship's position is 29 days out of date.

Length 190 m; draft 6.4 m.

Type: Cargo ship. MMSI: 256991000.

Date/timePositionNaut miles runAvg speedWind from/ knotsBaromVisibWave heightAir tempDewpointWater temp
2018-May-24 23:41S 28°51' E 032°09'0 0.9
2018-May-24 23:18S 28°51' E 032°09'0 0.5
2018-May-24 22:50S 28°51' E 032°09'7 0.2
2018-May-23 14:22S 28°48' E 032°03'0 0.0
2018-May-23 13:58S 28°48' E 032°03'0 0.0
2018-May-23 13:28S 28°48' E 032°03'0 0.0
2018-May-23 12:58S 28°48' E 032°03'0 0.0
2018-May-23 12:28S 28°48' E 032°03'0 0.0
2018-May-22 14:10S 28°48' E 032°03'0 0.0
2018-May-22 13:40S 28°48' E 032°03'0 0.0
2018-May-22 13:10S 28°48' E 032°03'0 0.0
2018-May-22 12:52S 28°48' E 032°03'0 0.0
2018-May-22 12:16S 28°48' E 032°03'0 0.0
2018-May-22 11:46S 28°48' E 032°03'0 0.0
2018-May-22 10:52S 28°48' E 032°03'0 0.0
2018-May-22 10:28S 28°48' E 032°03'0 0.0
2018-May-22 09:58S 28°48' E 032°03'0 0.0
2018-May-22 09:28S 28°48' E 032°03'0 0.0
2018-May-22 06:46S 28°48' E 032°03'0 0.0
2018-May-22 06:28S 28°48' E 032°03'0 0.0
2018-May-22 05:58S 28°48' E 032°03'0 0.0
2018-May-22 05:28S 28°48' E 032°03'0 0.0
2018-May-22 05:01S 28°48' E 032°03'0 0.0
2018-May-22 04:28S 28°48' E 032°03'0 0.0
2018-May-22 03:57S 28°48' E 032°03'0 0.0
2018-May-22 03:27S 28°48' E 032°03'0 0.0
2018-May-22 02:45S 28°48' E 032°03'0 0.0
2018-May-21 21:03S 28°48' E 032°03'0 0.0
2018-May-21 20:51S 28°48' E 032°03'0 0.0
2018-May-21 20:21S 28°48' E 032°03'0 0.0
2018-May-21 19:57S 28°48' E 032°03'0 0.0
2018-May-21 19:30S 28°48' E 032°03'0 0.0
2018-May-21 16:33S 28°48' E 032°03'0 0.1
2018-May-21 16:27S 28°48' E 032°03'0 0.0
2018-May-21 16:00S 28°48' E 032°03'0 0.0
2018-May-21 15:27S 28°48' E 032°03'0 0.0
2018-May-21 14:51S 28°48' E 032°03'0 0.0
2018-May-21 14:27S 28°48' E 032°03'8 0.9
2018-May-21 05:18S 28°53' E 032°09'1 2.0
2018-May-21 05:00S 28°54' E 032°09'2 4.0
2018-May-21 04:31S 28°56' E 032°09'3 5.5
2018-May-21 04:00S 28°58' E 032°08'0 0.1
2018-May-21 03:27S 28°58' E 032°08'0 0.0
2018-May-21 02:51S 28°58' E 032°08'0 0.0
2018-May-21 02:27S 28°58' E 032°08'0 0.0
2018-May-21 01:57S 28°58' E 032°08'0 0.1
2018-May-21 01:27S 28°58' E 032°08'0 0.1
2018-May-21 00:57S 28°58' E 032°08'0 0.0
2018-May-20 23:09S 28°58' E 032°08'0 0.0
2018-May-20 22:56S 28°58' E 032°08'  

Dump ship's entire track history